SKS weather

Skrydstrup Air Base
Vojens, South Denmark, Denmark

Public forecast

Using degrees Celsius for public forecast. Weather courtesy of forecast.io.

Current aviation weather report (METAR) for Skrydstrup Air Base

Retrieved 2020/04/01 10:50 UTC (15 minutes ago):

EKSP 011050Z 28018KT 9999 FEW021 BKN050 08/04 Q1015

Aviation forecast (TAF) for Skrydstrup Air Base

Retrieved 2020/04/01 09:31 UTC (2 hours ago):

TAF EKSP 010822Z 0109/0209 28012KT 9999 BKN030 TEMPO 0109/0116 28012G25KT 7000 -SHRA SCT012 BKN020TCU TEMPO 0116/0206 7000 -SHRA BKN008 BKN012TCU